createdAt,value
2024-03-28T00:00:54.323Z,69.9
2024-03-28T00:06:33.124Z,70.3
2024-03-28T00:12:07.973Z,69.7
2024-03-28T00:17:42.937Z,69.5
2024-03-28T00:23:18.428Z,69.8
2024-03-28T00:28:53.508Z,69.3
2024-03-28T00:34:28.274Z,69.5
2024-03-28T00:40:03.172Z,69.5
2024-03-28T00:45:39.298Z,69.7
2024-03-28T00:51:14.050Z,69.7
2024-03-28T00:56:49.125Z,69.9
2024-03-28T01:02:24.675Z,70.2
2024-03-28T01:08:00.238Z,70.4
2024-03-28T01:13:35.374Z,70.4
2024-03-28T01:19:11.208Z,70.7
2024-03-28T01:24:46.899Z,70.2
2024-03-28T01:30:21.850Z,71.4
2024-03-28T01:35:56.906Z,72
2024-03-28T01:41:32.155Z,71.5
2024-03-28T01:53:38.269Z,70.9
2024-03-28T01:59:13.410Z,70.7
2024-03-28T02:04:48.907Z,70.8
2024-03-28T02:10:24.460Z,71.5
2024-03-28T02:15:59.343Z,71.6
2024-03-28T02:21:34.696Z,72.1
2024-03-28T02:27:10.497Z,71.8
2024-03-28T02:32:45.370Z,72.1
2024-03-28T02:38:20.693Z,71.8
2024-03-28T02:43:56.063Z,71.9
2024-03-28T02:49:31.014Z,72.1
2024-03-28T02:55:06.141Z,72
2024-03-28T03:00:41.414Z,72.3
2024-03-28T03:06:16.245Z,72.4
2024-03-28T03:11:51.143Z,72
2024-03-28T03:17:26.305Z,72.5
2024-03-28T03:23:01.581Z,72.2
2024-03-28T03:28:36.808Z,72
2024-03-28T03:34:12.410Z,71.7
2024-03-28T03:39:47.668Z,71.8
2024-03-28T03:45:23.064Z,71.7
2024-03-28T03:50:58.316Z,72
2024-03-28T03:56:33.912Z,71.7
2024-03-28T04:02:08.998Z,72
2024-03-28T04:07:44.488Z,72.3
2024-03-28T04:13:19.290Z,72.4
2024-03-28T04:18:54.536Z,72.3
2024-03-28T04:24:29.683Z,72.6
2024-03-28T04:30:04.516Z,72.2
2024-03-28T04:35:39.640Z,72.6
2024-03-28T04:41:14.834Z,72.7
2024-03-28T04:46:49.716Z,72.8
2024-03-28T04:52:24.789Z,72.3
2024-03-28T04:58:00.154Z,72.2
2024-03-28T05:03:35.127Z,72.2
2024-03-28T05:09:10.104Z,71.5
2024-03-28T05:14:45.411Z,69.3
2024-03-28T05:20:20.230Z,67.3
2024-03-28T05:25:55.843Z,66.9
2024-03-28T05:31:31.571Z,67.2
2024-03-28T05:37:06.580Z,64.4
2024-03-28T05:42:47.303Z,63.7
2024-03-28T05:48:23.175Z,61.5
2024-03-28T05:53:58.180Z,58.7
2024-03-28T05:59:33.067Z,58.4
2024-03-28T06:05:09.108Z,55
2024-03-28T06:10:48.323Z,53.5
2024-03-28T06:16:26.088Z,49.9
2024-03-28T06:22:02.498Z,52
2024-03-28T06:27:37.548Z,51.2
2024-03-28T06:33:12.564Z,50.5
2024-03-28T06:38:47.967Z,50.4
2024-03-28T06:44:22.789Z,48.9
2024-03-28T06:49:58.049Z,49.4
2024-03-28T06:55:33.790Z,50.6
2024-03-28T07:01:08.572Z,50.4
2024-03-28T07:06:43.677Z,49.1
2024-03-28T07:12:19.030Z,50.2
2024-03-28T07:17:54.016Z,49.2
2024-03-28T07:23:29.267Z,52.4
2024-03-28T07:29:05.026Z,46.7
2024-03-28T07:34:40.957Z,48.3
2024-03-28T07:40:16.240Z,48.9
2024-03-28T07:45:52.037Z,45.9
2024-03-28T07:51:27.458Z,47.3
2024-03-28T07:57:02.148Z,43.8
2024-03-28T08:02:37.708Z,45.3
2024-03-28T08:08:13.312Z,43.2
2024-03-28T08:13:48.600Z,44.5
2024-03-28T08:19:23.761Z,48.1
2024-03-28T08:25:00.348Z,47.4
2024-03-28T08:30:35.529Z,46.4
2024-03-28T08:36:11.037Z,44.9
2024-03-28T08:41:46.342Z,46.7
2024-03-28T08:47:21.614Z,45.7
2024-03-28T08:52:59.927Z,46
2024-03-28T08:58:35.445Z,41.9
2024-03-28T09:04:10.882Z,45
2024-03-28T09:09:46.351Z,37.1
2024-03-28T09:15:21.496Z,38.2
2024-03-28T09:20:56.614Z,37.1
2024-03-28T09:26:32.140Z,36.5
2024-03-28T09:32:07.386Z,36.2
2024-03-28T09:37:42.285Z,34.5
2024-03-28T09:43:17.731Z,33.8
2024-03-28T09:48:52.649Z,35.4
2024-03-28T09:54:27.753Z,34.7
2024-03-28T10:00:02.958Z,32.8
2024-03-28T10:05:38.143Z,32.7
2024-03-28T10:11:13.023Z,32.4
2024-03-28T10:16:48.511Z,31.4
2024-03-28T10:22:23.281Z,35.1
2024-03-28T10:27:58.284Z,36.1
2024-03-28T10:33:33.445Z,34.2
2024-03-28T10:39:08.624Z,31.6
2024-03-28T10:44:43.583Z,35.9
2024-03-28T10:50:19.129Z,35.2
2024-03-28T10:55:54.295Z,31.6
2024-03-28T11:01:31.099Z,30.7
2024-03-28T11:07:16.720Z,31.9
2024-03-28T11:12:52.079Z,29.8
2024-03-28T11:18:27.138Z,28.1
2024-03-28T11:24:03.143Z,27.2
2024-03-28T11:29:38.253Z,30.9
2024-03-28T11:35:13.533Z,28.4
2024-03-28T11:40:48.999Z,30.6
2024-03-28T11:46:23.972Z,28.1
2024-03-28T11:51:59.198Z,29.8
2024-03-28T11:57:34.887Z,30
2024-03-28T12:03:10.095Z,28.5
2024-03-28T12:08:45.575Z,30.3
2024-03-28T12:14:20.749Z,31.6
2024-03-28T12:19:55.958Z,27.4
2024-03-28T12:25:31.440Z,27.8
2024-03-28T12:31:08.208Z,29.5
2024-03-28T12:36:43.226Z,26.9
2024-03-28T12:42:18.320Z,31.6
2024-03-28T12:47:53.305Z,30.5
2024-03-28T12:53:28.314Z,24.7
2024-03-28T12:59:04.473Z,26.9
2024-03-28T13:04:40.362Z,23.6
2024-03-28T13:10:15.990Z,25.8
2024-03-28T13:15:51.363Z,24.7
2024-03-28T13:21:26.875Z,26.1
2024-03-28T13:27:40.905Z,24.2
2024-03-28T13:33:21.330Z,23.1
2024-03-28T13:38:57.055Z,26.7
2024-03-28T13:44:32.313Z,26.1
2024-03-28T13:50:07.630Z,26
2024-03-28T13:55:43.577Z,29.2
2024-03-28T14:01:19.130Z,23.3
2024-03-28T14:06:54.619Z,31.2
2024-03-28T14:12:30.108Z,25.2
2024-03-28T14:18:05.207Z,26.5
2024-03-28T14:23:40.315Z,27.3
2024-03-28T14:29:15.999Z,27.7
2024-03-28T14:34:51.248Z,27.2
2024-03-28T14:40:26.604Z,35
2024-03-28T14:46:01.921Z,36.9
2024-03-28T14:51:36.922Z,34.8
2024-03-28T14:57:11.765Z,34.1
2024-03-28T15:02:46.922Z,28.8
2024-03-28T15:08:22.157Z,24.2
2024-03-28T15:13:57.374Z,24.4
2024-03-28T15:19:33.314Z,27.6
2024-03-28T15:25:08.706Z,31.9
2024-03-28T15:30:44.577Z,31.4
2024-03-28T15:36:20.797Z,31.2
2024-03-28T15:41:56.144Z,29.8
2024-03-28T15:47:31.460Z,30.6
2024-03-28T15:53:07.768Z,34.9
2024-03-28T15:58:42.839Z,28.8
2024-03-28T16:04:18.454Z,31.4
2024-03-28T16:09:53.466Z,29.9
2024-03-28T16:15:28.381Z,33
2024-03-28T16:21:03.789Z,32.8
2024-03-28T16:26:39.831Z,34.7
2024-03-28T16:32:16.175Z,34.4
2024-03-28T16:37:51.124Z,36.4
2024-03-28T16:43:26.414Z,43
2024-03-28T16:49:01.293Z,36.3
2024-03-28T16:54:37.222Z,37.7
2024-03-28T17:00:12.509Z,39.7
2024-03-28T17:05:48.072Z,39.3
2024-03-28T17:11:23.387Z,37.2
2024-03-28T17:16:58.586Z,40.2
2024-03-28T17:22:34.280Z,42.3
2024-03-28T17:28:11.779Z,42.5
2024-03-28T17:33:46.979Z,39.7
2024-03-28T17:39:21.908Z,41.9
2024-03-28T17:44:57.177Z,40.9
2024-03-28T17:50:33.832Z,39.7
2024-03-28T17:56:11.648Z,39.4
2024-03-28T18:01:49.537Z,38.9
2024-03-28T18:07:25.474Z,39.5
2024-03-28T18:13:00.649Z,41.2
2024-03-28T18:18:35.764Z,39.4
2024-03-28T18:24:11.060Z,39.9
2024-03-28T18:29:47.329Z,40.5
2024-03-28T18:35:25.691Z,41.3
2024-03-28T18:41:03.831Z,40.4
2024-03-28T18:46:38.917Z,41
2024-03-28T18:52:14.070Z,40.7
2024-03-28T18:57:49.497Z,41.4
2024-03-28T19:03:24.785Z,42
2024-03-28T19:09:00.051Z,41.5
2024-03-28T19:14:35.273Z,41.7
2024-03-28T19:20:10.659Z,41.6
2024-03-28T19:25:45.569Z,41.9
2024-03-28T19:31:21.012Z,41.7
2024-03-28T19:36:55.835Z,42.2
2024-03-28T19:42:30.632Z,42.7
2024-03-28T19:48:06.044Z,42.9
2024-03-28T19:53:41.268Z,43.6
2024-03-28T19:59:16.075Z,44.5
2024-03-28T20:04:51.762Z,44.2
2024-03-28T20:10:27.477Z,44.9
2024-03-28T20:16:02.903Z,45.4
2024-03-28T20:21:37.820Z,45.4
2024-03-28T20:27:12.752Z,45.7
2024-03-28T20:32:47.705Z,46
2024-03-28T20:38:22.928Z,46.4
2024-03-28T20:43:57.815Z,47.1
2024-03-28T20:49:32.774Z,47.1
2024-03-28T20:55:07.926Z,47.6
2024-03-28T21:00:43.024Z,46.8
2024-03-28T21:06:18.104Z,45.7
2024-03-28T21:11:53.491Z,45.7
2024-03-28T21:17:28.654Z,45.5
2024-03-28T21:23:04.003Z,45.3
2024-03-28T21:28:39.105Z,45.5
2024-03-28T21:34:14.046Z,45.2
2024-03-28T21:39:49.120Z,45.1
2024-03-28T21:45:24.557Z,45.7
2024-03-28T21:50:59.483Z,45.6
2024-03-28T21:56:35.078Z,45.9
2024-03-28T22:02:10.542Z,46.3
2024-03-28T22:07:45.716Z,46.5
2024-03-28T22:13:20.995Z,46.8
2024-03-28T22:18:56.156Z,47.2
2024-03-28T22:24:31.206Z,47.8
2024-03-28T22:30:06.447Z,48.4
2024-03-28T22:35:42.052Z,49.3
2024-03-28T22:41:16.985Z,49
2024-03-28T22:46:52.004Z,49.2
2024-03-28T22:52:26.914Z,49.3
2024-03-28T22:58:01.922Z,49.1
2024-03-28T23:03:37.104Z,49.1
2024-03-28T23:09:12.288Z,49
2024-03-28T23:14:47.322Z,49.5
2024-03-28T23:20:22.712Z,49.2
2024-03-28T23:25:58.482Z,49.2
2024-03-28T23:31:37.493Z,49.6
2024-03-28T23:37:15.859Z,49.9
2024-03-28T23:42:51.370Z,50.1
2024-03-28T23:48:26.586Z,50.4
2024-03-28T23:54:02.384Z,50.6
2024-03-28T23:59:38.018Z,50.9
